sensor_id;sensor_type;location;lat;lon;timestamp;temperature;humidity
36424;DHT22;22458;45.328;9.514;2022-09-30T00:01:47;18.50;85.40
36424;DHT22;22458;45.328;9.514;2022-09-30T00:04:20;18.50;86.00
36424;DHT22;22458;45.328;9.514;2022-09-30T00:06:46;18.40;85.50
36424;DHT22;22458;45.328;9.514;2022-09-30T00:09:13;18.40;85.60
36424;DHT22;22458;45.328;9.514;2022-09-30T00:11:40;18.30;85.60
36424;DHT22;22458;45.328;9.514;2022-09-30T00:14:07;18.30;85.60
36424;DHT22;22458;45.328;9.514;2022-09-30T00:16:36;18.30;85.60
36424;DHT22;22458;45.328;9.514;2022-09-30T00:19:03;18.30;85.60
36424;DHT22;22458;45.328;9.514;2022-09-30T00:21:31;18.30;85.60
36424;DHT22;22458;45.328;9.514;2022-09-30T00:23:58;18.30;85.60
36424;DHT22;22458;45.328;9.514;2022-09-30T00:26:24;18.30;85.50
36424;DHT22;22458;45.328;9.514;2022-09-30T00:28:55;18.30;85.50
36424;DHT22;22458;45.328;9.514;2022-09-30T00:31:24;18.20;85.50
36424;DHT22;22458;45.328;9.514;2022-09-30T00:33:51;18.20;85.60
36424;DHT22;22458;45.328;9.514;2022-09-30T00:36:40;18.20;85.60
36424;DHT22;22458;45.328;9.514;2022-09-30T00:39:10;18.30;85.60
36424;DHT22;22458;45.328;9.514;2022-09-30T00:41:36;18.30;85.60
36424;DHT22;22458;45.328;9.514;2022-09-30T00:47:36;18.30;85.50
36424;DHT22;22458;45.328;9.514;2022-09-30T00:50:30;18.30;85.50
36424;DHT22;22458;45.328;9.514;2022-09-30T00:54:14;18.30;85.50
36424;DHT22;22458;45.328;9.514;2022-09-30T01:01:11;18.20;85.70
36424;DHT22;22458;45.328;9.514;2022-09-30T01:03:41;18.20;85.70
36424;DHT22;22458;45.328;9.514;2022-09-30T01:06:07;18.20;85.70
36424;DHT22;22458;45.328;9.514;2022-09-30T01:08:36;18.20;85.80
36424;DHT22;22458;45.328;9.514;2022-09-30T01:11:02;18.20;85.90
36424;DHT22;22458;45.328;9.514;2022-09-30T01:13:30;18.20;85.90
36424;DHT22;22458;45.328;9.514;2022-09-30T01:16:31;18.20;85.90
36424;DHT22;22458;45.328;9.514;2022-09-30T01:27:40;18.10;86.30
36424;DHT22;22458;45.328;9.514;2022-09-30T01:30:14;18.10;86.30
36424;DHT22;22458;45.328;9.514;2022-09-30T01:35:32;18.00;86.40
36424;DHT22;22458;45.328;9.514;2022-09-30T01:38:08;18.10;86.50
36424;DHT22;22458;45.328;9.514;2022-09-30T01:46:20;18.10;86.60
36424;DHT22;22458;45.328;9.514;2022-09-30T01:49:29;18.10;86.70
36424;DHT22;22458;45.328;9.514;2022-09-30T01:54:31;18.00;86.70
36424;DHT22;22458;45.328;9.514;2022-09-30T01:57:30;18.00;86.70
36424;DHT22;22458;45.328;9.514;2022-09-30T02:00:04;18.00;86.60
36424;DHT22;22458;45.328;9.514;2022-09-30T02:02:49;18.00;86.90
36424;DHT22;22458;45.328;9.514;2022-09-30T02:05:36;17.90;86.90
36424;DHT22;22458;45.328;9.514;2022-09-30T02:08:09;17.90;87.10
36424;DHT22;22458;45.328;9.514;2022-09-30T02:10:50;17.80;87.40
36424;DHT22;22458;45.328;9.514;2022-09-30T02:13:48;17.80;87.50
36424;DHT22;22458;45.328;9.514;2022-09-30T02:16:21;17.80;87.50
36424;DHT22;22458;45.328;9.514;2022-09-30T02:18:51;17.70;87.70
36424;DHT22;22458;45.328;9.514;2022-09-30T02:21:22;17.80;87.80
36424;DHT22;22458;45.328;9.514;2022-09-30T02:23:53;17.80;87.80
36424;DHT22;22458;45.328;9.514;2022-09-30T02:26:28;17.70;87.90
36424;DHT22;22458;45.328;9.514;2022-09-30T02:29:20;17.80;87.80
36424;DHT22;22458;45.328;9.514;2022-09-30T02:31:51;17.80;87.60
36424;DHT22;22458;45.328;9.514;2022-09-30T02:34:22;17.70;87.90
36424;DHT22;22458;45.328;9.514;2022-09-30T02:37:14;17.60;88.00
36424;DHT22;22458;45.328;9.514;2022-09-30T02:42:30;17.70;87.90
36424;DHT22;22458;45.328;9.514;2022-09-30T02:45:04;17.50;88.00
36424;DHT22;22458;45.328;9.514;2022-09-30T02:50:35;17.50;88.70
36424;DHT22;22458;45.328;9.514;2022-09-30T02:55:55;17.60;88.50
36424;DHT22;22458;45.328;9.514;2022-09-30T02:58:25;17.60;88.40
36424;DHT22;22458;45.328;9.514;2022-09-30T03:00:53;17.70;88.40
36424;DHT22;22458;45.328;9.514;2022-09-30T03:05:51;17.70;88.40
36424;DHT22;22458;45.328;9.514;2022-09-30T03:08:17;17.70;88.30
36424;DHT22;22458;45.328;9.514;2022-09-30T03:10:44;17.70;88.30
36424;DHT22;22458;45.328;9.514;2022-09-30T03:13:28;17.70;88.20
36424;DHT22;22458;45.328;9.514;2022-09-30T03:19:18;17.70;88.10
36424;DHT22;22458;45.328;9.514;2022-09-30T03:30:15;17.70;88.10
36424;DHT22;22458;45.328;9.514;2022-09-30T03:41:26;17.70;88.10
36424;DHT22;22458;45.328;9.514;2022-09-30T03:44:22;17.70;87.80
36424;DHT22;22458;45.328;9.514;2022-09-30T03:46:56;17.70;87.70
36424;DHT22;22458;45.328;9.514;2022-09-30T03:49:31;17.60;88.30
36424;DHT22;22458;45.328;9.514;2022-09-30T03:51:59;17.60;87.70
36424;DHT22;22458;45.328;9.514;2022-09-30T03:54:30;17.60;87.60
36424;DHT22;22458;45.328;9.514;2022-09-30T03:56:56;17.60;87.40
36424;DHT22;22458;45.328;9.514;2022-09-30T03:59:26;17.60;87.10
36424;DHT22;22458;45.328;9.514;2022-09-30T04:01:55;17.60;86.90
36424;DHT22;22458;45.328;9.514;2022-09-30T04:04:24;17.60;87.00
36424;DHT22;22458;45.328;9.514;2022-09-30T04:06:50;17.60;87.30
36424;DHT22;22458;45.328;9.514;2022-09-30T04:09:15;17.50;87.50
36424;DHT22;22458;45.328;9.514;2022-09-30T04:11:41;17.50;87.60
36424;DHT22;22458;45.328;9.514;2022-09-30T04:14:07;17.50;87.60
36424;DHT22;22458;45.328;9.514;2022-09-30T04:16:33;17.50;87.70
36424;DHT22;22458;45.328;9.514;2022-09-30T04:18:59;17.50;87.80
36424;DHT22;22458;45.328;9.514;2022-09-30T04:21:25;17.50;87.70
36424;DHT22;22458;45.328;9.514;2022-09-30T04:23:54;17.50;87.70
36424;DHT22;22458;45.328;9.514;2022-09-30T04:26:20;17.50;87.70
36424;DHT22;22458;45.328;9.514;2022-09-30T04:28:47;17.50;87.70
36424;DHT22;22458;45.328;9.514;2022-09-30T04:31:14;17.50;87.60
36424;DHT22;22458;45.328;9.514;2022-09-30T04:33:43;17.50;87.60
36424;DHT22;22458;45.328;9.514;2022-09-30T04:36:09;17.40;87.50
36424;DHT22;22458;45.328;9.514;2022-09-30T04:38:35;17.40;87.60
36424;DHT22;22458;45.328;9.514;2022-09-30T04:41:03;17.50;87.70
36424;DHT22;22458;45.328;9.514;2022-09-30T04:43:30;17.40;87.70
36424;DHT22;22458;45.328;9.514;2022-09-30T04:45:56;17.40;87.90
36424;DHT22;22458;45.328;9.514;2022-09-30T04:48:23;17.40;87.90
36424;DHT22;22458;45.328;9.514;2022-09-30T04:50:49;17.40;88.00
36424;DHT22;22458;45.328;9.514;2022-09-30T04:53:16;17.30;88.10
36424;DHT22;22458;45.328;9.514;2022-09-30T04:55:43;17.30;88.20
36424;DHT22;22458;45.328;9.514;2022-09-30T04:58:09;17.30;88.20
36424;DHT22;22458;45.328;9.514;2022-09-30T05:00:35;17.30;88.20
36424;DHT22;22458;45.328;9.514;2022-09-30T05:03:00;17.30;88.20
36424;DHT22;22458;45.328;9.514;2022-09-30T05:05:28;17.30;88.20
36424;DHT22;22458;45.328;9.514;2022-09-30T05:07:59;17.30;88.20
36424;DHT22;22458;45.328;9.514;2022-09-30T05:10:26;17.40;88.20
36424;DHT22;22458;45.328;9.514;2022-09-30T05:12:52;17.40;88.20
36424;DHT22;22458;45.328;9.514;2022-09-30T05:15:18;17.40;88.20
36424;DHT22;22458;45.328;9.514;2022-09-30T05:17:44;17.40;88.20
36424;DHT22;22458;45.328;9.514;2022-09-30T05:20:13;17.40;88.20
36424;DHT22;22458;45.328;9.514;2022-09-30T05:22:39;17.50;88.20
36424;DHT22;22458;45.328;9.514;2022-09-30T05:25:05;17.50;88.30
36424;DHT22;22458;45.328;9.514;2022-09-30T05:27:31;17.50;88.30
36424;DHT22;22458;45.328;9.514;2022-09-30T05:29:56;17.40;88.30
36424;DHT22;22458;45.328;9.514;2022-09-30T05:32:22;17.50;88.30
36424;DHT22;22458;45.328;9.514;2022-09-30T05:34:49;17.50;88.20
36424;DHT22;22458;45.328;9.514;2022-09-30T05:37:15;17.50;88.20
36424;DHT22;22458;45.328;9.514;2022-09-30T05:39:41;17.50;88.20
36424;DHT22;22458;45.328;9.514;2022-09-30T05:42:07;17.60;88.20
36424;DHT22;22458;45.328;9.514;2022-09-30T05:44:33;17.60;88.00
36424;DHT22;22458;45.328;9.514;2022-09-30T05:46:58;17.60;88.00
36424;DHT22;22458;45.328;9.514;2022-09-30T05:49:25;17.50;87.90
36424;DHT22;22458;45.328;9.514;2022-09-30T05:51:51;17.50;88.00
36424;DHT22;22458;45.328;9.514;2022-09-30T05:54:17;17.50;88.00
36424;DHT22;22458;45.328;9.514;2022-09-30T05:56:43;17.50;88.00
36424;DHT22;22458;45.328;9.514;2022-09-30T05:59:09;17.50;88.10
36424;DHT22;22458;45.328;9.514;2022-09-30T06:01:35;17.50;88.20
36424;DHT22;22458;45.328;9.514;2022-09-30T06:04:01;17.50;88.20
36424;DHT22;22458;45.328;9.514;2022-09-30T06:06:27;17.50;88.20
36424;DHT22;22458;45.328;9.514;2022-09-30T06:08:54;17.60;88.30
36424;DHT22;22458;45.328;9.514;2022-09-30T06:11:21;17.50;88.50
36424;DHT22;22458;45.328;9.514;2022-09-30T06:13:49;17.50;88.60
36424;DHT22;22458;45.328;9.514;2022-09-30T06:16:16;17.30;88.70
36424;DHT22;22458;45.328;9.514;2022-09-30T06:18:42;17.30;89.00
36424;DHT22;22458;45.328;9.514;2022-09-30T06:21:10;17.20;89.30
36424;DHT22;22458;45.328;9.514;2022-09-30T06:23:36;17.10;89.80
36424;DHT22;22458;45.328;9.514;2022-09-30T06:26:05;17.00;90.30
36424;DHT22;22458;45.328;9.514;2022-09-30T06:28:31;17.00;90.10
36424;DHT22;22458;45.328;9.514;2022-09-30T06:31:04;17.00;90.10
36424;DHT22;22458;45.328;9.514;2022-09-30T06:33:30;17.00;90.20
36424;DHT22;22458;45.328;9.514;2022-09-30T06:35:56;17.10;90.20
36424;DHT22;22458;45.328;9.514;2022-09-30T06:38:22;17.00;90.30
36424;DHT22;22458;45.328;9.514;2022-09-30T06:40:48;17.10;90.30
36424;DHT22;22458;45.328;9.514;2022-09-30T06:43:16;17.10;90.30
36424;DHT22;22458;45.328;9.514;2022-09-30T06:45:43;17.10;90.40
36424;DHT22;22458;45.328;9.514;2022-09-30T06:48:09;17.10;90.40
36424;DHT22;22458;45.328;9.514;2022-09-30T06:50:35;17.20;90.30
36424;DHT22;22458;45.328;9.514;2022-09-30T06:53:05;17.20;90.30
36424;DHT22;22458;45.328;9.514;2022-09-30T06:55:32;17.30;90.30
36424;DHT22;22458;45.328;9.514;2022-09-30T06:57:58;17.30;90.30
36424;DHT22;22458;45.328;9.514;2022-09-30T07:00:25;17.20;90.30
36424;DHT22;22458;45.328;9.514;2022-09-30T07:02:53;17.20;90.40
36424;DHT22;22458;45.328;9.514;2022-09-30T07:05:19;17.20;90.50
36424;DHT22;22458;45.328;9.514;2022-09-30T07:07:45;17.20;90.50
36424;DHT22;22458;45.328;9.514;2022-09-30T07:10:11;17.40;90.50
36424;DHT22;22458;45.328;9.514;2022-09-30T07:12:37;17.50;90.40
36424;DHT22;22458;45.328;9.514;2022-09-30T07:15:03;17.60;90.40
36424;DHT22;22458;45.328;9.514;2022-09-30T07:17:29;17.60;90.40
36424;DHT22;22458;45.328;9.514;2022-09-30T07:19:54;17.70;90.30
36424;DHT22;22458;45.328;9.514;2022-09-30T07:22:20;17.70;90.20
36424;DHT22;22458;45.328;9.514;2022-09-30T07:24:53;17.80;90.20
36424;DHT22;22458;45.328;9.514;2022-09-30T07:27:19;17.80;90.20
36424;DHT22;22458;45.328;9.514;2022-09-30T07:29:46;17.90;90.20
36424;DHT22;22458;45.328;9.514;2022-09-30T07:32:12;18.00;90.10
36424;DHT22;22458;45.328;9.514;2022-09-30T07:34:38;18.00;90.10
36424;DHT22;22458;45.328;9.514;2022-09-30T07:37:13;18.10;90.10
36424;DHT22;22458;45.328;9.514;2022-09-30T07:39:43;18.20;90.10
36424;DHT22;22458;45.328;9.514;2022-09-30T07:42:10;18.20;90.00
36424;DHT22;22458;45.328;9.514;2022-09-30T07:44:36;18.20;90.20
36424;DHT22;22458;45.328;9.514;2022-09-30T07:47:07;18.30;90.00
36424;DHT22;22458;45.328;9.514;2022-09-30T07:49:34;18.30;89.80
36424;DHT22;22458;45.328;9.514;2022-09-30T07:52:00;18.30;89.80
36424;DHT22;22458;45.328;9.514;2022-09-30T07:54:29;18.30;89.60
36424;DHT22;22458;45.328;9.514;2022-09-30T07:56:56;18.40;89.50
36424;DHT22;22458;45.328;9.514;2022-09-30T07:59:23;18.40;89.50
36424;DHT22;22458;45.328;9.514;2022-09-30T08:01:49;18.40;89.40
36424;DHT22;22458;45.328;9.514;2022-09-30T08:04:17;18.40;89.60
36424;DHT22;22458;45.328;9.514;2022-09-30T08:06:52;18.40;89.60
36424;DHT22;22458;45.328;9.514;2022-09-30T08:09:20;18.50;89.50
36424;DHT22;22458;45.328;9.514;2022-09-30T08:11:47;18.60;89.40
36424;DHT22;22458;45.328;9.514;2022-09-30T08:14:15;18.60;89.10
36424;DHT22;22458;45.328;9.514;2022-09-30T08:16:41;18.80;89.00
36424;DHT22;22458;45.328;9.514;2022-09-30T08:19:08;18.80;88.70
36424;DHT22;22458;45.328;9.514;2022-09-30T08:21:37;18.90;88.40
36424;DHT22;22458;45.328;9.514;2022-09-30T08:24:03;19.00;88.10
36424;DHT22;22458;45.328;9.514;2022-09-30T08:26:28;19.10;88.00
36424;DHT22;22458;45.328;9.514;2022-09-30T08:28:54;19.20;87.90
36424;DHT22;22458;45.328;9.514;2022-09-30T08:31:22;19.30;87.70
36424;DHT22;22458;45.328;9.514;2022-09-30T08:33:49;19.30;87.50
36424;DHT22;22458;45.328;9.514;2022-09-30T08:36:16;19.40;87.40
36424;DHT22;22458;45.328;9.514;2022-09-30T08:38:42;19.40;87.20
36424;DHT22;22458;45.328;9.514;2022-09-30T08:47:24;19.40;86.70
36424;DHT22;22458;45.328;9.514;2022-09-30T08:52:42;19.50;86.50
36424;DHT22;22458;45.328;9.514;2022-09-30T08:55:18;19.50;86.40
36424;DHT22;22458;45.328;9.514;2022-09-30T08:57:45;19.50;86.10
36424;DHT22;22458;45.328;9.514;2022-09-30T09:00:13;19.50;86.00
36424;DHT22;22458;45.328;9.514;2022-09-30T09:02:59;19.40;85.80
36424;DHT22;22458;45.328;9.514;2022-09-30T09:05:49;19.50;85.80
36424;DHT22;22458;45.328;9.514;2022-09-30T09:10:46;19.60;85.70
36424;DHT22;22458;45.328;9.514;2022-09-30T09:13:53;19.60;85.60
36424;DHT22;22458;45.328;9.514;2022-09-30T09:16:45;19.60;85.30
36424;DHT22;22458;45.328;9.514;2022-09-30T09:19:16;19.60;85.50
36424;DHT22;22458;45.328;9.514;2022-09-30T09:24:19;19.60;85.40
36424;DHT22;22458;45.328;9.514;2022-09-30T09:26:45;19.60;85.50
36424;DHT22;22458;45.328;9.514;2022-09-30T09:31:43;19.50;85.50
36424;DHT22;22458;45.328;9.514;2022-09-30T09:34:11;19.50;85.50
36424;DHT22;22458;45.328;9.514;2022-09-30T09:45:02;19.50;85.60
36424;DHT22;22458;45.328;9.514;2022-09-30T09:47:28;19.50;85.50
36424;DHT22;22458;45.328;9.514;2022-09-30T09:49:57;19.50;85.40
36424;DHT22;22458;45.328;9.514;2022-09-30T09:55:41;19.60;85.10
36424;DHT22;22458;45.328;9.514;2022-09-30T09:58:10;19.60;85.30
36424;DHT22;22458;45.328;9.514;2022-09-30T10:00:38;19.50;85.30
36424;DHT22;22458;45.328;9.514;2022-09-30T10:08:24;19.60;85.20
36424;DHT22;22458;45.328;9.514;2022-09-30T10:10:52;19.60;85.10
36424;DHT22;22458;45.328;9.514;2022-09-30T10:13:23;19.60;85.00
36424;DHT22;22458;45.328;9.514;2022-09-30T10:15:52;19.60;84.90
36424;DHT22;22458;45.328;9.514;2022-09-30T10:18:20;19.50;84.70
36424;DHT22;22458;45.328;9.514;2022-09-30T10:20:54;19.40;84.60
36424;DHT22;22458;45.328;9.514;2022-09-30T10:23:30;19.30;84.80
36424;DHT22;22458;45.328;9.514;2022-09-30T10:26:09;19.40;85.00
36424;DHT22;22458;45.328;9.514;2022-09-30T10:31:31;19.30;84.80
36424;DHT22;22458;45.328;9.514;2022-09-30T10:36:49;19.40;84.90
36424;DHT22;22458;45.328;9.514;2022-09-30T10:39:31;19.40;85.00
36424;DHT22;22458;45.328;9.514;2022-09-30T10:42:15;19.50;84.80
36424;DHT22;22458;45.328;9.514;2022-09-30T10:47:15;19.60;84.90
36424;DHT22;22458;45.328;9.514;2022-09-30T10:50:02;19.50;85.10
36424;DHT22;22458;45.328;9.514;2022-09-30T10:52:40;19.50;85.20
36424;DHT22;22458;45.328;9.514;2022-09-30T10:55:28;19.50;85.60
36424;DHT22;22458;45.328;9.514;2022-09-30T10:57:57;19.50;85.70
36424;DHT22;22458;45.328;9.514;2022-09-30T11:00:25;19.50;85.90
36424;DHT22;22458;45.328;9.514;2022-09-30T11:03:14;19.50;86.10
36424;DHT22;22458;45.328;9.514;2022-09-30T11:05:45;19.60;86.00
36424;DHT22;22458;45.328;9.514;2022-09-30T11:11:07;19.40;86.40
36424;DHT22;22458;45.328;9.514;2022-09-30T11:13:55;19.40;86.40
36424;DHT22;22458;45.328;9.514;2022-09-30T11:16:43;19.30;86.60
36424;DHT22;22458;45.328;9.514;2022-09-30T11:19:22;19.30;87.00
36424;DHT22;22458;45.328;9.514;2022-09-30T11:24:51;19.30;87.10
36424;DHT22;22458;45.328;9.514;2022-09-30T11:27:27;19.20;87.30
36424;DHT22;22458;45.328;9.514;2022-09-30T11:32:30;19.20;87.50
36424;DHT22;22458;45.328;9.514;2022-09-30T11:49:11;19.40;87.20
36424;DHT22;22458;45.328;9.514;2022-09-30T11:54:50;19.40;87.30
36424;DHT22;22458;45.328;9.514;2022-09-30T11:57:48;19.40;87.20
36424;DHT22;22458;45.328;9.514;2022-09-30T12:00:17;19.50;87.10
36424;DHT22;22458;45.328;9.514;2022-09-30T12:02:50;19.50;87.20
36424;DHT22;22458;45.328;9.514;2022-09-30T12:05:27;19.50;87.00
36424;DHT22;22458;45.328;9.514;2022-09-30T12:08:02;19.60;87.00
36424;DHT22;22458;45.328;9.514;2022-09-30T12:10:38;19.50;86.90
36424;DHT22;22458;45.328;9.514;2022-09-30T12:13:13;19.50;86.70
36424;DHT22;22458;45.328;9.514;2022-09-30T12:15:42;19.40;86.70
36424;DHT22;22458;45.328;9.514;2022-09-30T12:18:36;19.40;86.90
36424;DHT22;22458;45.328;9.514;2022-09-30T12:21:27;19.40;86.70
36424;DHT22;22458;45.328;9.514;2022-09-30T12:24:00;19.50;86.70
36424;DHT22;22458;45.328;9.514;2022-09-30T12:26:27;19.40;86.60
36424;DHT22;22458;45.328;9.514;2022-09-30T12:28:59;19.40;86.70
36424;DHT22;22458;45.328;9.514;2022-09-30T12:39:55;19.60;86.90
36424;DHT22;22458;45.328;9.514;2022-09-30T12:48:07;19.50;87.00
36424;DHT22;22458;45.328;9.514;2022-09-30T12:50:44;19.50;87.00
36424;DHT22;22458;45.328;9.514;2022-09-30T12:53:30;19.50;87.60
36424;DHT22;22458;45.328;9.514;2022-09-30T12:56:12;19.60;87.00
36424;DHT22;22458;45.328;9.514;2022-09-30T12:58:50;19.60;87.00
36424;DHT22;22458;45.328;9.514;2022-09-30T13:03:48;19.50;87.10
36424;DHT22;22458;45.328;9.514;2022-09-30T13:06:15;19.60;87.20
36424;DHT22;22458;45.328;9.514;2022-09-30T13:09:16;19.50;87.30
36424;DHT22;22458;45.328;9.514;2022-09-30T13:11:37;19.50;87.40
36424;DHT22;22458;45.328;9.514;2022-09-30T13:27:35;19.60;87.70
36424;DHT22;22458;45.328;9.514;2022-09-30T13:35:35;19.60;88.00
36424;DHT22;22458;45.328;9.514;2022-09-30T13:40:56;19.50;88.10
36424;DHT22;22458;45.328;9.514;2022-09-30T13:45:57;19.60;88.30
36424;DHT22;22458;45.328;9.514;2022-09-30T13:48:34;19.60;88.40
36424;DHT22;22458;45.328;9.514;2022-09-30T13:51:10;19.60;88.30
36424;DHT22;22458;45.328;9.514;2022-09-30T13:53:50;19.70;88.40
36424;DHT22;22458;45.328;9.514;2022-09-30T13:56:29;19.70;88.40
36424;DHT22;22458;45.328;9.514;2022-09-30T14:10:44;19.60;88.70
36424;DHT22;22458;45.328;9.514;2022-09-30T14:13:25;19.60;88.80
36424;DHT22;22458;45.328;9.514;2022-09-30T14:23:43;19.60;89.00
36424;DHT22;22458;45.328;9.514;2022-09-30T14:29:06;19.60;88.90
36424;DHT22;22458;45.328;9.514;2022-09-30T14:31:33;19.70;88.80
36424;DHT22;22458;45.328;9.514;2022-09-30T14:34:10;19.60;89.00
36424;DHT22;22458;45.328;9.514;2022-09-30T14:36:37;19.60;89.00
36424;DHT22;22458;45.328;9.514;2022-09-30T14:39:05;19.50;89.10
36424;DHT22;22458;45.328;9.514;2022-09-30T14:41:34;19.50;89.00
36424;DHT22;22458;45.328;9.514;2022-09-30T14:44:01;19.60;89.00
36424;DHT22;22458;45.328;9.514;2022-09-30T14:46:36;19.60;88.90
36424;DHT22;22458;45.328;9.514;2022-09-30T14:49:12;19.60;88.90
36424;DHT22;22458;45.328;9.514;2022-09-30T14:51:43;19.70;89.00
36424;DHT22;22458;45.328;9.514;2022-09-30T14:54:21;19.60;89.10
36424;DHT22;22458;45.328;9.514;2022-09-30T14:56:48;19.70;89.20
36424;DHT22;22458;45.328;9.514;2022-09-30T14:59:18;19.70;89.40
36424;DHT22;22458;45.328;9.514;2022-09-30T15:01:46;19.70;89.40
36424;DHT22;22458;45.328;9.514;2022-09-30T15:04:18;19.70;89.40
36424;DHT22;22458;45.328;9.514;2022-09-30T15:06:48;19.70;89.50
36424;DHT22;22458;45.328;9.514;2022-09-30T15:11:46;19.60;89.60
36424;DHT22;22458;45.328;9.514;2022-09-30T15:14:20;19.60;89.90
36424;DHT22;22458;45.328;9.514;2022-09-30T15:16:49;19.60;89.70
36424;DHT22;22458;45.328;9.514;2022-09-30T15:19:31;19.60;89.80
36424;DHT22;22458;45.328;9.514;2022-09-30T15:22:01;19.60;89.70
36424;DHT22;22458;45.328;9.514;2022-09-30T15:24:29;19.60;89.80
36424;DHT22;22458;45.328;9.514;2022-09-30T15:26:56;19.70;89.80
36424;DHT22;22458;45.328;9.514;2022-09-30T15:29:23;19.70;89.90
36424;DHT22;22458;45.328;9.514;2022-09-30T15:31:58;19.70;89.80
36424;DHT22;22458;45.328;9.514;2022-09-30T15:34:25;19.70;89.90
36424;DHT22;22458;45.328;9.514;2022-09-30T15:37:01;19.60;89.90
36424;DHT22;22458;45.328;9.514;2022-09-30T15:39:39;19.60;89.90
36424;DHT22;22458;45.328;9.514;2022-09-30T15:42:37;19.60;90.00
36424;DHT22;22458;45.328;9.514;2022-09-30T15:45:32;19.60;90.00
36424;DHT22;22458;45.328;9.514;2022-09-30T15:48:00;19.50;89.90
36424;DHT22;22458;45.328;9.514;2022-09-30T15:50:35;19.50;90.00
36424;DHT22;22458;45.328;9.514;2022-09-30T15:53:04;19.50;90.10
36424;DHT22;22458;45.328;9.514;2022-09-30T15:55:38;19.50;90.30
36424;DHT22;22458;45.328;9.514;2022-09-30T15:58:29;19.50;90.00
36424;DHT22;22458;45.328;9.514;2022-09-30T16:03:56;19.60;90.10
36424;DHT22;22458;45.328;9.514;2022-09-30T16:06:29;19.50;90.10
36424;DHT22;22458;45.328;9.514;2022-09-30T16:09:18;19.50;90.10
36424;DHT22;22458;45.328;9.514;2022-09-30T16:14:58;19.50;90.00
36424;DHT22;22458;45.328;9.514;2022-09-30T16:17:28;19.60;90.00
36424;DHT22;22458;45.328;9.514;2022-09-30T16:19:55;19.50;90.10
36424;DHT22;22458;45.328;9.514;2022-09-30T16:25:27;19.50;90.00
36424;DHT22;22458;45.328;9.514;2022-09-30T16:28:10;19.50;90.10
36424;DHT22;22458;45.328;9.514;2022-09-30T16:30:41;19.50;90.20
36424;DHT22;22458;45.328;9.514;2022-09-30T16:33:09;19.40;90.20
36424;DHT22;22458;45.328;9.514;2022-09-30T16:35:36;19.40;90.30
36424;DHT22;22458;45.328;9.514;2022-09-30T16:38:04;19.40;90.30
36424;DHT22;22458;45.328;9.514;2022-09-30T16:40:31;19.40;90.30
36424;DHT22;22458;45.328;9.514;2022-09-30T16:42:57;19.30;90.30
36424;DHT22;22458;45.328;9.514;2022-09-30T16:45:27;19.30;90.30
36424;DHT22;22458;45.328;9.514;2022-09-30T16:47:53;19.30;90.50
36424;DHT22;22458;45.328;9.514;2022-09-30T16:50:27;19.30;90.60
36424;DHT22;22458;45.328;9.514;2022-09-30T16:52:54;19.30;90.50
36424;DHT22;22458;45.328;9.514;2022-09-30T16:55:21;19.30;90.60
36424;DHT22;22458;45.328;9.514;2022-09-30T16:57:46;19.30;90.60
36424;DHT22;22458;45.328;9.514;2022-09-30T17:00:15;19.30;90.60
36424;DHT22;22458;45.328;9.514;2022-09-30T17:02:45;19.30;90.50
36424;DHT22;22458;45.328;9.514;2022-09-30T17:05:13;19.30;90.50
36424;DHT22;22458;45.328;9.514;2022-09-30T17:07:42;19.30;90.50
36424;DHT22;22458;45.328;9.514;2022-09-30T17:10:16;19.30;90.50
36424;DHT22;22458;45.328;9.514;2022-09-30T17:12:43;19.30;90.60
36424;DHT22;22458;45.328;9.514;2022-09-30T17:15:08;19.30;90.50
36424;DHT22;22458;45.328;9.514;2022-09-30T17:17:35;19.30;90.50
36424;DHT22;22458;45.328;9.514;2022-09-30T17:20:02;19.30;90.50
36424;DHT22;22458;45.328;9.514;2022-09-30T17:22:28;19.30;90.50
36424;DHT22;22458;45.328;9.514;2022-09-30T17:24:53;19.30;90.50
36424;DHT22;22458;45.328;9.514;2022-09-30T17:27:19;19.30;90.50
36424;DHT22;22458;45.328;9.514;2022-09-30T17:29:45;19.30;90.50
36424;DHT22;22458;45.328;9.514;2022-09-30T17:32:10;19.30;90.50
36424;DHT22;22458;45.328;9.514;2022-09-30T17:34:36;19.30;90.40
36424;DHT22;22458;45.328;9.514;2022-09-30T17:37:02;19.30;90.50
36424;DHT22;22458;45.328;9.514;2022-09-30T17:39:27;19.30;90.50
36424;DHT22;22458;45.328;9.514;2022-09-30T17:41:53;19.30;90.50
36424;DHT22;22458;45.328;9.514;2022-09-30T17:44:37;19.20;90.50
36424;DHT22;22458;45.328;9.514;2022-09-30T17:47:04;19.20;90.60
36424;DHT22;22458;45.328;9.514;2022-09-30T17:49:32;19.20;90.50
36424;DHT22;22458;45.328;9.514;2022-09-30T17:51:58;19.10;90.80
36424;DHT22;22458;45.328;9.514;2022-09-30T17:54:24;19.10;90.50
36424;DHT22;22458;45.328;9.514;2022-09-30T17:56:49;19.10;90.50
36424;DHT22;22458;45.328;9.514;2022-09-30T17:59:15;19.10;90.50
36424;DHT22;22458;45.328;9.514;2022-09-30T18:01:43;19.10;90.50
36424;DHT22;22458;45.328;9.514;2022-09-30T18:04:09;19.10;90.50
36424;DHT22;22458;45.328;9.514;2022-09-30T18:06:35;19.10;90.50
36424;DHT22;22458;45.328;9.514;2022-09-30T18:09:01;19.10;90.30
36424;DHT22;22458;45.328;9.514;2022-09-30T18:11:26;19.10;90.30
36424;DHT22;22458;45.328;9.514;2022-09-30T18:13:57;19.10;90.20
36424;DHT22;22458;45.328;9.514;2022-09-30T18:16:28;19.10;90.20
36424;DHT22;22458;45.328;9.514;2022-09-30T18:18:57;19.10;90.10
36424;DHT22;22458;45.328;9.514;2022-09-30T18:21:23;19.10;90.10
36424;DHT22;22458;45.328;9.514;2022-09-30T18:23:53;19.10;90.00
36424;DHT22;22458;45.328;9.514;2022-09-30T18:26:19;19.10;89.90
36424;DHT22;22458;45.328;9.514;2022-09-30T18:28:45;19.10;89.90
36424;DHT22;22458;45.328;9.514;2022-09-30T18:31:10;19.00;89.90
36424;DHT22;22458;45.328;9.514;2022-09-30T18:33:42;19.10;89.80
36424;DHT22;22458;45.328;9.514;2022-09-30T18:36:08;19.10;89.80
36424;DHT22;22458;45.328;9.514;2022-09-30T18:38:34;19.00;89.70
36424;DHT22;22458;45.328;9.514;2022-09-30T18:41:00;19.00;89.80
36424;DHT22;22458;45.328;9.514;2022-09-30T18:43:26;18.90;89.90
36424;DHT22;22458;45.328;9.514;2022-09-30T18:45:57;18.90;89.80
36424;DHT22;22458;45.328;9.514;2022-09-30T18:48:23;19.00;89.80
36424;DHT22;22458;45.328;9.514;2022-09-30T18:50:51;19.00;89.90
36424;DHT22;22458;45.328;9.514;2022-09-30T18:53:19;18.90;89.90
36424;DHT22;22458;45.328;9.514;2022-09-30T18:55:45;18.90;90.10
36424;DHT22;22458;45.328;9.514;2022-09-30T18:58:11;18.90;90.10
36424;DHT22;22458;45.328;9.514;2022-09-30T19:00:37;18.90;90.10
36424;DHT22;22458;45.328;9.514;2022-09-30T19:03:03;18.90;90.10
36424;DHT22;22458;45.328;9.514;2022-09-30T19:05:29;18.80;90.10
36424;DHT22;22458;45.328;9.514;2022-09-30T19:07:55;18.80;90.00
36424;DHT22;22458;45.328;9.514;2022-09-30T19:10:21;18.70;90.10
36424;DHT22;22458;45.328;9.514;2022-09-30T19:12:49;18.60;90.30
36424;DHT22;22458;45.328;9.514;2022-09-30T19:15:16;18.50;90.40